Time;durP1;ratioP1;P1;durP2;ratioP2;P2;SDS_P1;SDS_P2;PMS_P1;PMS_P2;Temp;Humidity;BMP_temperature;BMP_pressure;BME280_temperature;BME280_humidity;BME280_pressure;Samples;Min_cycle;Max_cycle;Signal;HPM_P1;HPM_P2
2023/11/27 00:02:05;;;;;;;9.40;3.78;;;;;;;12.74;48.49;100800.78;5071250;28;20036;-59
2023/11/27 00:04:30;;;;;;;12.13;3.40;;;;;;;12.75;48.51;100800.66;5095608;28;20029;-58
2023/11/27 00:06:55;;;;;;;8.57;3.55;;;;;;;12.77;47.86;100797.81;5077856;28;20040;-59
2023/11/27 00:09:21;;;;;;;8.52;3.90;;;;;;;12.76;47.59;100790.72;5077733;28;20107;-59
2023/11/27 00:11:47;;;;;;;12.95;3.90;;;;;;;12.75;48.63;100789.91;5096012;28;20035;-59
2023/11/27 00:14:13;;;;;;;12.23;3.60;;;;;;;12.72;47.96;100776.75;5096241;28;20488;-59
2023/11/27 00:16:38;;;;;;;8.63;4.43;;;;;;;12.72;48.29;100778.59;5078135;28;20067;-59
2023/11/27 00:19:03;;;;;;;6.22;3.22;;;;;;;12.71;48.46;100775.03;5099076;28;20035;-59
2023/11/27 00:21:29;;;;;;;8.43;3.65;;;;;;;12.68;48.44;100761.03;5059248;28;20035;-59
2023/11/27 00:23:54;;;;;;;11.57;3.47;;;;;;;12.72;47.43;100768.69;5093565;28;20062;-59
2023/11/27 00:26:20;;;;;;;9.18;3.53;;;;;;;12.64;47.94;100752.44;5093572;28;20036;-59
2023/11/27 00:28:45;;;;;;;6.25;3.75;;;;;;;12.68;47.50;100751.16;5090914;28;20142;-59
2023/11/27 00:31:10;;;;;;;8.88;3.53;;;;;;;12.69;47.27;100743.94;5075123;28;20024;-59
2023/11/27 00:33:36;;;;;;;12.50;4.20;;;;;;;12.67;48.06;100738.69;5075241;28;20116;-59
2023/11/27 00:36:03;;;;;;;7.28;3.47;;;;;;;12.65;47.68;100734.44;5093385;28;20529;-59
2023/11/27 00:38:28;;;;;;;7.40;3.50;;;;;;;12.67;47.75;100733.31;5093342;28;20031;-59
2023/11/27 00:40:54;;;;;;;8.65;3.90;;;;;;;12.67;47.09;100727.13;5074766;28;20036;-60
2023/11/27 00:43:19;;;;;;;9.38;3.28;;;;;;;12.65;48.58;100712.97;5093239;28;20159;-58
2023/11/27 00:45:45;;;;;;;9.18;3.15;;;;;;;12.66;46.92;100720.03;5090463;28;20028;-59
2023/11/27 00:48:10;;;;;;;9.43;4.10;;;;;;;12.65;48.14;100718.34;5075171;28;20028;-59
2023/11/27 00:50:36;;;;;;;6.40;3.90;;;;;;;12.63;46.98;100704.19;5075342;28;20403;-59
2023/11/27 00:53:01;;;;;;;13.13;3.50;;;;;;;12.63;48.22;100698.81;5075541;28;20032;-59
2023/11/27 00:55:26;;;;;;;4.72;3.13;;;;;;;12.61;47.10;100701.69;5094224;28;20399;-59
2023/11/27 00:57:52;;;;;;;8.57;3.55;;;;;;;12.57;48.11;100699.41;5093908;28;20032;-59
2023/11/27 01:00:17;;;;;;;12.95;3.53;;;;;;;12.55;47.74;100685.28;5077629;28;20039;-58
2023/11/27 01:02:44;;;;;;;6.95;3.80;;;;;;;12.57;47.98;100694.03;5075935;28;20028;-59
2023/11/27 01:05:09;;;;;;;7.68;3.80;;;;;;;12.54;48.43;100684.41;5092653;28;20529;-59
2023/11/27 01:07:35;;;;;;;5.93;3.13;;;;;;;12.55;47.14;100680.75;5075310;28;20032;-59
2023/11/27 01:10:00;;;;;;;15.73;3.97;;;;;;;12.56;47.24;100677.06;5075170;28;20051;-59
2023/11/27 01:12:26;;;;;;;15.30;3.03;;;;;;;12.57;48.40;100667.16;5075214;28;20040;-60
2023/11/27 01:14:51;;;;;;;8.43;3.55;;;;;;;12.49;48.19;100659.84;5075221;28;20032;-59
2023/11/27 01:17:17;;;;;;;6.55;3.70;;;;;;;12.56;46.84;100660.13;5058600;28;20372;-59
2023/11/27 01:19:43;;;;;;;8.18;3.83;;;;;;;12.57;47.53;100667.16;5075078;28;20036;-58
2023/11/27 01:22:09;;;;;;;7.47;2.83;;;;;;;12.56;47.64;100660.94;5075083;28;20115;-59
2023/11/27 01:24:35;;;;;;;8.07;3.42;;;;;;;12.55;47.07;100655.72;5075173;28;20404;-59
2023/11/27 01:27:00;;;;;;;5.97;3.17;;;;;;;12.56;47.79;100657.44;5093128;28;20050;-59
2023/11/27 01:29:26;;;;;;;10.77;2.88;;;;;;;12.53;47.24;100650.50;5093336;28;20568;-59
2023/11/27 01:31:51;;;;;;;10.40;3.70;;;;;;;12.50;47.88;100660.69;5075133;28;20089;-59
2023/11/27 01:34:17;;;;;;;5.40;2.88;;;;;;;12.47;48.13;100651.09;5074879;28;20028;-59
2023/11/27 01:36:43;;;;;;;10.10;2.78;;;;;;;12.44;46.74;100642.47;5075146;28;20028;-59
2023/11/27 01:39:09;;;;;;;7.35;2.65;;;;;;;12.45;47.15;100641.47;5057587;28;20044;-59
2023/11/27 01:41:34;;;;;;;8.75;3.47;;;;;;;12.42;47.05;100644.47;5092795;28;20081;-59
2023/11/27 01:44:00;;;;;;;9.15;3.75;;;;;;;12.40;47.29;100633.00;5074980;28;20024;-59
2023/11/27 01:46:29;;;;;;;7.75;3.08;;;;;;;12.43;47.67;100638.94;5058338;28;20024;-60
2023/11/27 01:48:55;;;;;;;18.58;3.78;;;;;;;12.47;46.96;100634.13;5092847;28;20016;-58
2023/11/27 01:51:22;;;;;;;6.35;3.03;;;;;;;12.45;48.07;100634.25;5075055;28;20027;-59
2023/11/27 01:53:50;;;;;;;4.97;2.97;;;;;;;12.45;47.86;100631.56;5074523;28;20040;-59
2023/11/27 01:56:16;;;;;;;4.13;2.53;;;;;;;12.46;47.54;100629.72;5058289;28;20046;-58
2023/11/27 01:58:41;;;;;;;7.40;3.22;;;;;;;12.47;47.80;100620.69;5092850;28;20043;-59
2023/11/27 02:01:07;;;;;;;7.03;2.72;;;;;;;12.45;47.83;100612.75;5074615;28;20467;-59
2023/11/27 02:03:33;;;;;;;6.43;3.35;;;;;;;12.43;47.87;100605.84;5074380;28;20035;-59
2023/11/27 02:05:59;;;;;;;7.43;2.97;;;;;;;12.40;48.13;100606.13;5074837;28;20020;-59
2023/11/27 02:08:24;;;;;;;5.22;2.20;;;;;;;12.38;48.01;100600.06;5057886;28;20031;-58
2023/11/27 02:10:52;;;;;;;5.25;2.35;;;;;;;12.38;47.56;100602.75;5074813;28;20020;-59
2023/11/27 02:13:18;;;;;;;14.13;2.83;;;;;;;12.36;47.86;100584.09;5092875;28;21613;-59
2023/11/27 02:15:43;;;;;;;9.93;3.20;;;;;;;12.35;46.74;100586.94;5074369;28;20050;-59
2023/11/27 02:18:08;;;;;;;5.63;3.00;;;;;;;12.36;47.99;100589.47;5092933;28;20484;-59
2023/11/27 02:20:34;;;;;;;10.13;2.72;;;;;;;12.35;47.10;100582.41;5074407;28;20040;-59
2023/11/27 02:22:59;;;;;;;5.90;2.55;;;;;;;12.36;48.02;100581.44;5092435;28;20043;-59
2023/11/27 02:25:25;;;;;;;10.57;2.90;;;;;;;12.33;47.44;100572.81;5057752;28;20031;-58
2023/11/27 02:27:50;;;;;;;5.68;2.72;;;;;;;12.31;46.94;100569.44;5078376;28;20028;-59
2023/11/27 02:30:16;;;;;;;6.75;2.80;;;;;;;12.30;47.83;100570.41;5078569;28;20419;-59
2023/11/27 02:32:41;;;;;;;6.22;2.70;;;;;;;12.31;47.11;100564.88;5096325;28;20032;-59
2023/11/27 02:35:07;;;;;;;5.40;3.13;;;;;;;12.29;47.37;100548.06;5078138;28;20028;-58
2023/11/27 02:37:32;;;;;;;5.72;2.38;;;;;;;12.27;47.78;100542.88;5096579;28;20024;-59
2023/11/27 02:39:58;;;;;;;5.38;2.13;;;;;;;12.23;47.44;100537.91;5096572;28;20032;-59
2023/11/27 02:42:24;;;;;;;10.52;3.45;;;;;;;12.24;47.55;100543.16;5096523;28;20028;-58
2023/11/27 02:44:49;;;;;;;4.95;2.03;;;;;;;12.24;47.22;100536.94;5096782;28;20404;-58
2023/11/27 02:47:16;;;;;;;7.93;2.75;;;;;;;12.21;47.41;100532.69;5095914;28;20032;-58
2023/11/27 02:49:42;;;;;;;3.80;2.17;;;;;;;12.24;47.55;100532.41;5077993;28;20498;-58
2023/11/27 02:52:08;;;;;;;5.07;2.35;;;;;;;12.23;47.10;100524.50;5096261;28;20150;-58
2023/11/27 02:54:33;;;;;;;8.35;2.40;;;;;;;12.22;48.26;100522.81;5095856;28;20061;-58
2023/11/27 02:56:59;;;;;;;6.82;2.20;;;;;;;12.20;47.51;100509.53;5095910;28;20097;-58
2023/11/27 02:59:25;;;;;;;9.45;2.50;;;;;;;12.17;48.20;100515.19;5095725;28;20119;-59
2023/11/27 03:01:50;;;;;;;7.53;2.30;;;;;;;12.14;48.13;100504.72;5077862;28;20043;-58
2023/11/27 03:04:16;;;;;;;6.03;2.30;;;;;;;12.11;47.16;100499.69;5077317;28;20040;-59
2023/11/27 03:06:41;;;;;;;4.75;1.90;;;;;;;12.07;48.76;100492.06;5077567;28;20124;-58
2023/11/27 03:09:10;;;;;;;4.15;2.50;;;;;;;12.02;48.35;100481.78;5096260;28;20035;-58
2023/11/27 03:11:35;;;;;;;6.93;2.42;;;;;;;12.01;48.15;100482.75;5078573;28;20052;-58
2023/11/27 03:14:01;;;;;;;4.57;2.47;;;;;;;11.98;48.72;100477.66;5095953;28;20103;-59
2023/11/27 03:16:26;;;;;;;5.55;2.13;;;;;;;11.96;48.58;100478.81;5060594;28;20042;-59
2023/11/27 03:18:51;;;;;;;3.00;1.77;;;;;;;11.90;48.74;100463.28;5077145;28;20116;-59
2023/11/27 03:21:22;;;;;;;5.32;2.70;;;;;;;11.84;48.84;100456.66;5076030;28;20036;-59
2023/11/27 03:23:48;;;;;;;5.32;2.75;;;;;;;11.81;49.01;100453.47;5095398;28;20033;-60
2023/11/27 03:26:14;;;;;;;7.20;2.55;;;;;;;11.77;48.13;100452.91;5095190;28;20039;-60
2023/11/27 03:28:39;;;;;;;6.68;2.25;;;;;;;11.72;48.06;100444.44;5060070;28;20028;-60
2023/11/27 03:31:04;;;;;;;7.55;2.00;;;;;;;11.67;49.31;100441.28;5095126;28;20048;-59
2023/11/27 03:33:30;;;;;;;9.77;2.20;;;;;;;11.62;48.22;100441.75;5060363;28;20032;-61
2023/11/27 03:35:55;;;;;;;4.53;1.67;;;;;;;11.58;49.14;100439.50;5076959;28;20028;-61
2023/11/27 03:38:21;;;;;;;12.35;2.78;;;;;;;11.48;49.50;100422.56;5077007;28;20379;-60
2023/11/27 03:40:46;;;;;;;4.60;2.53;;;;;;;11.41;49.18;100421.47;5076971;28;20036;-62
2023/11/27 03:43:11;;;;;;;8.50;2.08;;;;;;;11.37;49.22;100418.22;5076926;28;20024;-61
2023/11/27 03:45:37;;;;;;;10.38;2.50;;;;;;;11.29;49.69;100409.22;5076826;28;20024;-60
2023/11/27 03:48:06;;;;;;;5.00;2.17;;;;;;;11.25;49.28;100413.19;5094947;28;20090;-61
2023/11/27 03:50:33;;;;;;;3.13;1.98;;;;;;;11.18;49.34;100402.19;5094951;28;20551;-60
2023/11/27 03:52:58;;;;;;;6.13;2.53;;;;;;;11.09;49.25;100393.16;5076838;28;20073;-61
2023/11/27 03:55:24;;;;;;;7.15;2.70;;;;;;;11.04;49.94;100384.72;5077177;28;20044;-63
2023/11/27 03:57:50;;;;;;;9.35;2.90;;;;;;;10.94;49.09;100375.00;5078976;28;20032;-61
2023/11/27 04:00:16;;;;;;;6.82;2.30;;;;;;;10.89;50.31;100370.06;5061898;28;20035;-61
2023/11/27 04:02:43;;;;;;;5.47;2.58;;;;;;;10.85;50.17;100374.03;5078143;28;20036;-61
2023/11/27 04:05:08;;;;;;;12.05;2.67;;;;;;;10.84;50.23;100358.94;5076558;28;20039;-60
2023/11/27 04:07:34;;;;;;;5.13;2.40;;;;;;;10.83;50.74;100359.91;5076115;28;20028;-61
2023/11/27 04:09:59;;;;;;;4.43;2.20;;;;;;;10.83;49.99;100351.84;5094428;28;20032;-61
2023/11/27 04:12:24;;;;;;;5.80;2.70;;;;;;;10.82;50.87;100352.03;5094477;28;20028;-60
2023/11/27 04:14:50;;;;;;;4.78;2.30;;;;;;;10.82;50.21;100336.78;5076100;28;20399;-60
2023/11/27 04:17:15;;;;;;;5.90;2.53;;;;;;;10.81;50.79;100328.88;5059556;28;20047;-61
2023/11/27 04:19:40;;;;;;;5.30;2.15;;;;;;;10.80;49.91;100332.56;5059423;28;20115;-61
2023/11/27 04:22:06;;;;;;;9.25;2.47;;;;;;;10.77;50.07;100320.31;5076137;28;20044;-61
2023/11/27 04:24:31;;;;;;;5.95;2.25;;;;;;;10.77;50.07;100314.09;5075794;28;20107;-61
2023/11/27 04:26:56;;;;;;;9.90;2.55;;;;;;;10.79;50.19;100310.28;5094651;28;20040;-60
2023/11/27 04:29:22;;;;;;;10.70;2.40;;;;;;;10.78;50.33;100300.56;5075941;28;20407;-60
2023/11/27 04:31:47;;;;;;;8.63;1.95;;;;;;;10.76;51.06;100299.84;5094101;28;20056;-61
2023/11/27 04:34:12;;;;;;;5.05;2.08;;;;;;;10.71;50.65;100286.06;5076151;28;20032;-60
2023/11/27 04:36:38;;;;;;;4.00;2.40;;;;;;;10.68;50.66;100286.34;5059553;28;20108;-60
2023/11/27 04:39:03;;;;;;;11.50;3.67;;;;;;;10.62;50.61;100260.13;5075732;28;20418;-61
2023/11/27 04:41:29;;;;;;;11.77;2.80;;;;;;;10.69;51.16;100266.59;5075833;28;20055;-61
2023/11/27 04:43:54;;;;;;;4.72;1.92;;;;;;;10.66;50.97;100264.22;5093763;28;20044;-61
2023/11/27 04:46:19;;;;;;;4.32;2.33;;;;;;;10.61;51.47;100261.09;5093681;28;20028;-61
2023/11/27 04:48:45;;;;;;;3.92;2.15;;;;;;;10.57;50.57;100265.06;5075081;28;20560;-61
2023/11/27 04:51:11;;;;;;;5.18;1.77;;;;;;;10.56;51.12;100260.69;5075501;28;20527;-61
2023/11/27 04:53:36;;;;;;;3.40;1.80;;;;;;;10.55;51.89;100251.00;5075081;28;20428;-62
2023/11/27 04:56:02;;;;;;;6.15;1.60;;;;;;;10.54;51.60;100235.91;5075585;28;20503;-61
2023/11/27 04:58:27;;;;;;;5.63;2.10;;;;;;;10.57;51.39;100226.72;5058490;28;20036;-61
2023/11/27 05:00:52;;;;;;;3.03;1.63;;;;;;;10.57;51.36;100224.91;5075273;28;20039;-61
2023/11/27 05:03:20;;;;;;;6.43;2.60;;;;;;;10.56;51.01;100223.19;5058740;28;20123;-61
2023/11/27 05:05:45;;;;;;;3.15;1.92;;;;;;;10.58;51.63;100215.84;5075208;28;20035;-61
2023/11/27 05:08:10;;;;;;;6.28;2.30;;;;;;;10.58;51.61;100210.50;5075385;28;20024;-61
2023/11/27 05:10:38;;;;;;;7.60;1.80;;;;;;;10.63;51.89;100208.25;5075129;28;20520;-61
2023/11/27 05:13:05;;;;;;;3.80;1.90;;;;;;;10.64;51.78;100196.53;5075128;28;20032;-61
2023/11/27 05:15:30;;;;;;;4.05;2.10;;;;;;;10.66;51.32;100189.22;5075097;28;20506;-61
2023/11/27 05:17:56;;;;;;;4.28;1.95;;;;;;;10.62;51.67;100170.91;5058448;28;20032;-61
2023/11/27 05:20:22;;;;;;;4.45;1.85;;;;;;;10.55;51.07;100154.59;5092943;28;20534;-61
2023/11/27 05:22:47;;;;;;;1.77;1.25;;;;;;;10.52;51.83;100141.50;5075278;28;20024;-60
2023/11/27 05:25:13;;;;;;;2.53;2.33;;;;;;;10.50;51.42;100138.09;5093548;28;20111;-61
2023/11/27 05:27:39;;;;;;;4.68;2.03;;;;;;;10.51;52.27;100123.72;5093025;28;20499;-61
2023/11/27 05:30:06;;;;;;;3.83;1.60;;;;;;;10.52;51.54;100128.91;5093165;28;20039;-61
2023/11/27 05:32:31;;;;;;;5.47;1.90;;;;;;;10.54;52.10;100112.72;5075097;28;20552;-60
2023/11/27 05:34:56;;;;;;;1.92;1.42;;;;;;;10.49;51.38;100110.50;5058445;28;20120;-75
2023/11/27 05:37:22;;;;;;;5.88;1.67;;;;;;;10.49;52.32;100105.16;5074757;28;20124;-61
2023/11/27 05:39:47;;;;;;;2.35;1.70;;;;;;;10.48;51.88;100091.88;5074657;28;20040;-61
2023/11/27 05:42:13;;;;;;;2.72;1.00;;;;;;;10.45;51.50;100076.13;5075124;28;20078;-60
2023/11/27 05:44:39;;;;;;;5.55;1.38;;;;;;;10.46;52.45;100077.81;5074484;28;20036;-61
2023/11/27 05:47:05;;;;;;;2.08;1.40;;;;;;;10.50;51.85;100069.31;5058091;28;20028;-61
2023/11/27 05:49:31;;;;;;;3.83;1.73;;;;;;;10.53;51.90;100061.00;5092653;28;20494;-61
2023/11/27 05:51:56;;;;;;;1.88;1.67;;;;;;;10.57;51.88;100058.03;5092912;28;20441;-60
2023/11/27 05:54:22;;;;;;;4.90;1.60;;;;;;;10.59;52.33;100051.53;5092660;28;20052;-61
2023/11/27 05:56:47;;;;;;;1.35;1.23;;;;;;;10.61;52.44;100049.53;5092662;28;20032;-60
2023/11/27 05:59:13;;;;;;;5.10;1.35;;;;;;;10.62;51.91;100048.56;5074750;28;20032;-60
2023/11/27 06:01:40;;;;;;;1.10;1.08;;;;;;;10.65;52.45;100050.09;5059834;28;20025;-60
2023/11/27 06:04:05;;;;;;;1.63;1.10;;;;;;;10.65;52.08;100029.53;5096838;28;20123;-61
2023/11/27 06:06:30;;;;;;;1.20;0.80;;;;;;;10.61;52.29;100033.47;5062127;28;20082;-61
2023/11/27 06:08:56;;;;;;;1.75;1.00;;;;;;;10.61;52.09;100027.31;5096773;28;20032;-60
2023/11/27 06:11:22;;;;;;;2.13;1.35;;;;;;;10.62;51.76;100013.75;5096733;28;20039;-60
2023/11/27 06:13:47;;;;;;;1.58;0.88;;;;;;;10.61;51.85;100014.72;5078805;28;20104;-60
2023/11/27 06:16:13;;;;;;;1.27;1.05;;;;;;;10.57;51.75;100016.03;5061827;28;20115;-61
2023/11/27 06:18:38;;;;;;;4.90;1.33;;;;;;;10.60;52.48;99998.81;5078713;28;20058;-60
2023/11/27 06:21:04;;;;;;;1.48;1.10;;;;;;;10.60;51.79;99999.66;5096465;28;20115;-60
2023/11/27 06:23:30;;;;;;;3.47;1.58;;;;;;;10.57;52.35;100005.31;5096447;28;20035;-60
2023/11/27 06:25:56;;;;;;;2.95;1.27;;;;;;;10.58;51.84;99998.13;5085717;28;20079;-61
2023/11/27 06:28:21;;;;;;;2.83;1.30;;;;;;;10.56;52.07;99987.56;5096153;28;20036;-60
2023/11/27 06:30:47;;;;;;;2.42;1.38;;;;;;;10.57;52.33;99977.69;5078312;28;20032;-61
2023/11/27 06:33:12;;;;;;;1.23;1.13;;;;;;;10.56;52.39;99971.50;5096382;28;20138;-61
2023/11/27 06:35:38;;;;;;;2.58;1.05;;;;;;;10.55;52.38;99969.84;5096421;28;20035;-61
2023/11/27 06:38:03;;;;;;;4.28;1.08;;;;;;;10.56;52.01;99966.13;5077917;28;20032;-60
2023/11/27 06:40:29;;;;;;;1.65;0.98;;;;;;;10.55;52.39;99953.75;5096270;28;20043;-60
2023/11/27 06:42:55;;;;;;;3.72;1.23;;;;;;;10.57;52.86;99957.13;5059803;28;20036;-60
2023/11/27 06:45:21;;;;;;;6.38;1.05;;;;;;;10.56;51.99;99958.09;5078193;28;20040;-60
2023/11/27 06:47:48;;;;;;;2.45;1.38;;;;;;;10.54;52.11;99938.69;5095641;28;20036;-60
2023/11/27 06:50:13;;;;;;;3.55;1.40;;;;;;;10.56;52.74;99935.84;5096028;28;20444;-60
2023/11/27 06:52:39;;;;;;;1.10;0.90;;;;;;;10.57;52.62;99924.16;5096100;28;20051;-60
2023/11/27 06:55:05;;;;;;;1.38;1.02;;;;;;;10.55;52.78;99929.66;5076692;28;20058;-59
2023/11/27 06:57:30;;;;;;;2.20;1.50;;;;;;;10.57;53.41;99919.63;5058842;28;20027;-60
2023/11/27 06:59:55;;;;;;;2.38;0.98;;;;;;;10.64;52.65;99915.34;5059470;28;20081;-60
2023/11/27 07:02:21;;;;;;;2.97;1.00;;;;;;;10.66;52.92;99907.19;5076537;28;20055;-60
2023/11/27 07:04:46;;;;;;;2.55;1.30;;;;;;;10.67;53.10;99904.34;5059471;28;20109;-59
2023/11/27 07:07:12;;;;;;;2.42;0.90;;;;;;;10.71;52.50;99897.69;5076248;28;20507;-60
2023/11/27 07:09:37;;;;;;;1.17;0.82;;;;;;;10.73;52.40;99893.00;5056259;28;20032;-59
2023/11/27 07:12:03;;;;;;;1.58;1.10;;;;;;;10.72;52.60;99885.16;5073937;28;20154;-59
2023/11/27 07:14:28;;;;;;;1.58;0.95;;;;;;;10.74;52.27;99865.25;5056080;28;20499;-60
2023/11/27 07:16:54;;;;;;;3.85;1.30;;;;;;;10.77;52.72;99878.34;5056223;28;20032;-60
2023/11/27 07:19:20;;;;;;;2.72;0.95;;;;;;;10.74;52.63;99867.06;5055946;28;20536;-58
2023/11/27 07:21:45;;;;;;;7.78;1.00;;;;;;;10.77;53.11;99862.25;5055936;28;20043;-58
2023/11/27 07:24:11;;;;;;;1.05;0.95;;;;;;;10.76;52.66;99863.25;5074030;28;20056;-58
2023/11/27 07:26:37;;;;;;;1.02;0.90;;;;;;;10.77;52.82;99840.00;5039426;28;20028;-58
2023/11/27 07:29:03;;;;;;;3.10;0.88;;;;;;;10.82;52.81;99853.75;5056206;28;20036;-58
2023/11/27 07:31:31;;;;;;;1.20;0.90;;;;;;;10.86;52.60;99847.09;5056179;28;20040;-58
2023/11/27 07:33:56;;;;;;;3.33;1.10;;;;;;;10.89;52.45;99836.91;5056409;28;20020;-58
2023/11/27 07:36:22;;;;;;;2.00;1.10;;;;;;;10.94;52.35;99839.94;5056130;28;20111;-59
2023/11/27 07:38:48;;;;;;;1.45;0.80;;;;;;;10.95;52.41;99836.28;5073941;28;20108;-58
2023/11/27 07:41:14;;;;;;;0.88;0.88;;;;;;;10.95;53.72;99817.53;5056005;28;20033;-58
2023/11/27 07:43:39;;;;;;;1.48;0.90;;;;;;;10.99;52.52;99828.78;5055947;28;20037;-58
2023/11/27 07:46:10;;;;;;;0.88;0.63;;;;;;;11.05;52.67;99817.44;5055897;28;20037;-58
2023/11/27 07:48:37;;;;;;;2.33;0.90;;;;;;;11.05;52.52;99810.22;5073705;28;20033;-59
2023/11/27 07:51:06;;;;;;;2.17;1.08;;;;;;;11.10;52.60;99815.97;5039064;28;20062;-58
2023/11/27 07:53:32;;;;;;;2.95;1.10;;;;;;;11.14;53.00;99813.78;5007822;28;1232591;-58
2023/11/27 07:55:57;;;;;;;1.02;1.02;;;;;;;11.17;53.41;99815.34;5044673;28;20105;-58
2023/11/27 07:58:22;;;;;;;0.65;0.57;;;;;;;11.18;53.35;99822.34;5056752;28;20377;-58
2023/11/27 08:00:48;;;;;;;1.08;0.80;;;;;;;11.20;52.46;99815.00;5056470;28;20033;-59
2023/11/27 08:03:15;;;;;;;4.57;0.80;;;;;;;11.21;53.09;99816.69;5056972;28;20124;-58
2023/11/27 08:05:43;;;;;;;5.43;1.17;;;;;;;11.25;52.30;99807.34;5074597;28;20052;-58
2023/11/27 08:08:08;;;;;;;1.58;0.80;;;;;;;11.24;53.22;99800.28;5056376;28;20040;-58
2023/11/27 08:10:36;;;;;;;1.17;0.70;;;;;;;11.25;52.93;99801.97;5056533;28;20029;-58
2023/11/27 08:13:01;;;;;;;1.50;0.70;;;;;;;11.25;53.14;99792.06;5074252;28;20111;-58
2023/11/27 08:15:27;;;;;;;1.85;0.75;;;;;;;11.26;53.22;99798.28;5056200;28;20123;-58
2023/11/27 08:17:55;;;;;;;1.80;1.30;;;;;;;11.23;53.52;99787.88;5073995;28;20025;-58
2023/11/27 08:20:23;;;;;;;1.65;1.20;;;;;;;11.26;52.97;99787.56;5056271;28;20049;-58
2023/11/27 08:22:48;;;;;;;1.30;0.80;;;;;;;11.24;52.97;99778.84;5039432;28;20058;-59
2023/11/27 08:25:16;;;;;;;2.53;1.20;;;;;;;11.19;52.70;99781.16;5073548;28;20530;-58
2023/11/27 08:27:46;;;;;;;0.50;0.50;;;;;;;11.19;52.61;99765.94;5072812;28;20025;-59
2023/11/27 08:30:12;;;;;;;1.42;0.82;;;;;;;11.20;53.31;99769.44;5056785;28;20051;-59
2023/11/27 08:32:38;;;;;;;4.30;1.00;;;;;;;11.17;53.31;99769.78;5056534;28;20051;-59
2023/11/27 08:35:05;;;;;;;2.83;1.05;;;;;;;11.24;53.66;99768.13;5040124;28;20025;-59
2023/11/27 08:37:35;;;;;;;2.42;1.23;;;;;;;11.25;53.03;99753.72;5075150;28;20379;-59
2023/11/27 08:40:03;;;;;;;1.48;0.40;;;;;;;11.29;53.64;99763.13;5057953;28;20032;-58
2023/11/27 08:42:29;;;;;;;2.25;0.70;;;;;;;11.29;53.26;99752.41;5039040;28;20052;-58
2023/11/27 08:44:54;;;;;;;2.05;0.90;;;;;;;11.32;53.37;99754.75;5055623;28;20063;-58
2023/11/27 08:47:20;;;;;;;3.80;0.70;;;;;;;11.32;53.14;99749.41;5073428;28;20043;-58
2023/11/27 08:49:45;;;;;;;0.88;0.60;;;;;;;11.32;53.03;99749.41;5073443;28;20039;-58
2023/11/27 08:52:12;;;;;;;1.73;1.02;;;;;;;11.28;52.87;99734.66;5073403;28;20077;-58
2023/11/27 08:54:38;;;;;;;1.23;1.05;;;;;;;11.30;52.90;99738.00;5086993;28;20123;-59
2023/11/27 08:57:05;;;;;;;0.95;0.90;;;;;;;11.28;53.03;99743.50;5073817;28;20480;-59
2023/11/27 08:59:31;;;;;;;2.83;1.08;;;;;;;11.28;53.56;99737.34;5055665;28;20025;-59
2023/11/27 09:01:57;;;;;;;1.92;0.80;;;;;;;11.28;54.03;99738.16;5073038;28;20457;-60
2023/11/27 09:04:22;;;;;;;4.88;1.38;;;;;;;11.24;53.25;99720.72;5075076;28;20032;-60
2023/11/27 09:06:47;;;;;;;1.23;0.75;;;;;;;11.20;52.95;99715.81;5073160;28;20403;-59
2023/11/27 09:09:13;;;;;;;2.45;1.10;;;;;;;11.21;53.21;99715.69;5072905;28;20358;-59
2023/11/27 09:11:38;;;;;;;2.13;1.13;;;;;;;11.22;53.66;99705.81;5090686;28;20039;-59
2023/11/27 09:14:04;;;;;;;1.42;1.00;;;;;;;11.22;53.40;99712.00;5075083;28;20024;-60
2023/11/27 09:16:29;;;;;;;1.30;1.10;;;;;;;11.19;53.31;99708.81;5093556;28;20020;-59
2023/11/27 09:18:55;;;;;;;0.95;0.80;;;;;;;11.20;53.29;99708.63;5093324;28;20032;-59
2023/11/27 09:21:20;;;;;;;1.90;0.90;;;;;;;11.20;54.07;99697.91;5074981;28;20028;-59
2023/11/27 09:23:45;;;;;;;1.65;1.00;;;;;;;11.18;53.71;99693.72;5093227;28;20029;-59
2023/11/27 09:26:13;;;;;;;0.95;0.77;;;;;;;11.20;53.80;99692.56;5074975;28;20028;-60
2023/11/27 09:28:38;;;;;;;2.83;0.75;;;;;;;11.24;53.76;99695.75;5074965;28;20048;-60
2023/11/27 09:31:03;;;;;;;1.10;0.75;;;;;;;11.26;52.90;99686.53;5075107;28;20051;-59
2023/11/27 09:33:29;;;;;;;2.95;0.98;;;;;;;11.27;53.84;99685.56;5075078;28;20031;-60
2023/11/27 09:35:54;;;;;;;0.82;0.73;;;;;;;11.29;53.80;99690.75;5074502;28;20515;-60
2023/11/27 09:38:19;;;;;;;0.68;0.68;;;;;;;11.27;53.65;99687.38;5090842;28;20047;-59
2023/11/27 09:40:45;;;;;;;0.80;0.70;;;;;;;11.26;53.18;99675.81;5106265;28;20031;-60
2023/11/27 09:43:11;;;;;;;3.35;0.80;;;;;;;11.29;53.34;99680.03;5080542;28;20414;-60
2023/11/27 09:45:37;;;;;;;1.33;0.60;;;;;;;11.28;54.14;99673.00;5072793;28;20028;-60
2023/11/27 09:48:10;;;;;;;0.85;0.63;;;;;;;11.28;53.15;99663.09;5072905;28;20032;-60
2023/11/27 09:50:35;;;;;;;;;;;;;;;11.30;53.41;99660.25;5073952;28;20107;-60
2023/11/27 09:53:10;;;;;;;0.70;0.70;;;;;;;11.33;53.98;99667.97;5075034;28;20015;-60
2023/11/27 09:55:39;;;;;;;0.60;0.40;;;;;;;11.28;53.55;99656.91;5079293;28;20123;-59
2023/11/27 09:58:06;;;;;;;0.85;0.60;;;;;;;11.27;54.22;99653.38;5109065;28;20111;-59
2023/11/27 10:00:32;;;;;;;0.65;0.65;;;;;;;11.26;53.83;99649.03;5092253;28;20406;-59
2023/11/27 10:02:58;;;;;;;1.35;0.77;;;;;;;11.26;53.36;99648.19;5074686;28;20036;-59
2023/11/27 10:05:24;;;;;;;2.10;0.95;;;;;;;11.28;54.26;99651.56;5075021;28;20032;-59
2023/11/27 10:07:51;;;;;;;1.15;0.43;;;;;;;11.28;54.13;99638.16;5070452;28;20032;-59
2023/11/27 10:10:19;;;;;;;0.80;0.80;;;;;;;11.29;54.20;99634.44;5080720;28;20031;-59
2023/11/27 10:12:46;;;;;;;0.60;0.55;;;;;;;11.33;54.02;99628.63;5113017;28;20085;-59
2023/11/27 10:15:15;;;;;;;2.67;0.60;;;;;;;11.33;53.12;99604.50;5094859;28;20034;-58
2023/11/27 10:17:42;;;;;;;1.33;0.73;;;;;;;11.41;53.63;99619.75;5095243;28;20032;-58
2023/11/27 10:20:12;;;;;;;1.00;0.70;;;;;;;11.43;54.08;99607.00;5113044;28;20127;-58
2023/11/27 10:22:41;;;;;;;2.92;0.65;;;;;;;11.47;53.30;99608.38;5094650;28;20045;-58
2023/11/27 10:25:08;;;;;;;0.70;0.60;;;;;;;11.43;53.38;99589.09;5094808;28;20036;-59
2023/11/27 10:27:34;;;;;;;2.58;0.80;;;;;;;11.46;53.28;99594.13;5094653;28;20028;-57
2023/11/27 10:30:03;;;;;;;1.88;0.95;;;;;;;11.48;53.13;99577.84;5094788;28;20027;-58
2023/11/27 10:32:29;;;;;;;0.60;0.60;;;;;;;11.47;53.97;99573.50;5112507;28;20024;-58
2023/11/27 10:34:57;;;;;;;1.63;0.63;;;;;;;11.43;53.42;99564.94;5095076;28;20032;-59
2023/11/27 10:37:23;;;;;;;1.27;0.63;;;;;;;11.39;52.82;99563.59;5095001;28;20081;-59
2023/11/27 10:39:49;;;;;;;0.93;0.57;;;;;;;11.34;53.77;99549.00;5094509;28;20028;-58
2023/11/27 10:42:18;;;;;;;2.38;1.05;;;;;;;11.32;53.22;99540.31;5094394;28;20456;-59
2023/11/27 10:44:47;;;;;;;4.47;1.20;;;;;;;11.32;53.39;99556.38;5112659;28;20032;-59
2023/11/27 10:47:14;;;;;;;0.77;0.50;;;;;;;11.31;53.49;99535.94;5096502;28;20032;-59
2023/11/27 10:49:40;;;;;;;3.88;1.33;;;;;;;11.34;53.35;99531.09;5116429;28;20035;-59
2023/11/27 10:52:09;;;;;;;0.90;0.60;;;;;;;11.36;53.71;99522.91;5098375;28;20403;-59
2023/11/27 10:54:35;;;;;;;2.72;0.85;;;;;;;11.36;53.30;99515.66;5098211;28;20036;-59
2023/11/27 10:57:05;;;;;;;4.20;0.70;;;;;;;11.39;53.39;99522.56;5116372;28;20024;-59
2023/11/27 10:59:33;;;;;;;1.15;0.65;;;;;;;11.40;54.11;99510.81;5098014;28;20046;-60
2023/11/27 11:02:03;;;;;;;0.70;0.60;;;;;;;11.45;54.06;99498.59;5098409;28;20028;-60
2023/11/27 11:04:39;;;;;;;2.58;0.93;;;;;;;11.47;53.43;99498.44;5116089;28;20032;-60
2023/11/27 11:07:18;;;;;;;1.83;0.80;;;;;;;11.49;53.57;99483.84;5080720;28;20119;-61
2023/11/27 11:09:51;;;;;;;0.60;0.60;;;;;;;11.51;54.14;99483.66;5098856;28;20015;-60
2023/11/27 11:12:20;;;;;;;;;;;;;;;11.52;53.17;99477.31;5098389;28;20542;-60
2023/11/27 11:14:47;;;;;;;0.90;0.90;;;;;;;11.50;52.99;99471.28;5097931;28;20359;-59
2023/11/27 11:17:34;;;;;;;1.98;0.77;;;;;;;11.51;53.15;99467.59;5115756;28;20071;-60
2023/11/27 11:20:43;;;;;;;0.60;0.60;;;;;;;11.49;53.79;99464.25;5115875;28;20036;-61
2023/11/27 11:23:20;;;;;;;0.68;0.55;;;;;;;11.48;53.41;99470.59;4980972;28;20072;-61
2023/11/27 11:26:21;;;;;;;1.15;0.60;;;;;;;11.47;53.09;99448.31;5013417;28;20066;-60